sensor_id;sensor_type;location;lat;lon;timestamp;pressure;altitude;pressure_sealevel;temperature;humidity
54872;BME280;43914;57.680;11.982;2022-07-21T00:01:33;100684.02;;;22.72;53.09
54872;BME280;43914;57.680;11.982;2022-07-21T00:04:00;100680.72;;;22.70;53.15
54872;BME280;43914;57.680;11.982;2022-07-21T00:06:26;100688.10;;;22.67;53.25
54872;BME280;43914;57.680;11.982;2022-07-21T00:08:52;100688.92;;;22.65;53.35
54872;BME280;43914;57.680;11.982;2022-07-21T00:11:18;100676.02;;;22.60;53.58
54872;BME280;43914;57.680;11.982;2022-07-21T00:13:44;100672.16;;;22.56;53.81
54872;BME280;43914;57.680;11.982;2022-07-21T00:16:10;100677.09;;;22.51;53.92
54872;BME280;43914;57.680;11.982;2022-07-21T00:18:36;100675.42;;;22.47;54.05
54872;BME280;43914;57.680;11.982;2022-07-21T00:21:03;100675.64;;;22.43;54.29
54872;BME280;43914;57.680;11.982;2022-07-21T00:23:29;100680.82;;;22.37;54.43
54872;BME280;43914;57.680;11.982;2022-07-21T00:25:55;100680.52;;;22.33;54.70
54872;BME280;43914;57.680;11.982;2022-07-21T00:28:21;100686.50;;;22.28;54.90
54872;BME280;43914;57.680;11.982;2022-07-21T00:30:47;100677.17;;;22.24;55.01
54872;BME280;43914;57.680;11.982;2022-07-21T00:33:13;100676.89;;;22.20;55.09
54872;BME280;43914;57.680;11.982;2022-07-21T00:35:39;100676.30;;;22.15;55.13
54872;BME280;43914;57.680;11.982;2022-07-21T00:38:05;100670.24;;;22.11;55.38
54872;BME280;43914;57.680;11.982;2022-07-21T00:40:32;100668.31;;;22.06;55.48
54872;BME280;43914;57.680;11.982;2022-07-21T00:42:58;100657.34;;;22.01;55.51
54872;BME280;43914;57.680;11.982;2022-07-21T00:45:24;100656.75;;;21.99;55.61
54872;BME280;43914;57.680;11.982;2022-07-21T00:47:50;100662.47;;;21.95;55.66
54872;BME280;43914;57.680;11.982;2022-07-21T00:50:18;100658.90;;;21.91;55.77
54872;BME280;43914;57.680;11.982;2022-07-21T00:52:47;100652.02;;;21.86;55.93
54872;BME280;43914;57.680;11.982;2022-07-21T00:55:16;100656.66;;;21.83;55.97
54872;BME280;43914;57.680;11.982;2022-07-21T00:57:45;100653.33;;;21.79;56.12
54872;BME280;43914;57.680;11.982;2022-07-21T01:00:15;100646.21;;;21.75;56.20
54872;BME280;43914;57.680;11.982;2022-07-21T01:02:43;100643.44;;;21.70;56.27
54872;BME280;43914;57.680;11.982;2022-07-21T01:05:12;100646.39;;;21.66;56.41
54872;BME280;43914;57.680;11.982;2022-07-21T01:07:50;100646.60;;;21.61;56.60
54872;BME280;43914;57.680;11.982;2022-07-21T01:10:14;100643.59;;;21.58;56.76
54872;BME280;43914;57.680;11.982;2022-07-21T01:12:41;100651.20;;;21.53;56.80
54872;BME280;43914;57.680;11.982;2022-07-21T01:15:09;100654.17;;;21.49;56.90
54872;BME280;43914;57.680;11.982;2022-07-21T01:17:37;100642.91;;;21.43;56.97
54872;BME280;43914;57.680;11.982;2022-07-21T01:20:06;100646.70;;;21.39;57.08
54872;BME280;43914;57.680;11.982;2022-07-21T01:22:36;100644.73;;;21.34;57.17
54872;BME280;43914;57.680;11.982;2022-07-21T01:25:04;100645.25;;;21.31;57.32
54872;BME280;43914;57.680;11.982;2022-07-21T01:27:31;100638.65;;;21.25;57.47
54872;BME280;43914;57.680;11.982;2022-07-21T01:29:57;100642.19;;;21.25;57.63
54872;BME280;43914;57.680;11.982;2022-07-21T01:32:24;100647.37;;;21.22;57.69
54872;BME280;43914;57.680;11.982;2022-07-21T01:34:50;100648.41;;;21.18;57.87
54872;BME280;43914;57.680;11.982;2022-07-21T01:37:21;100649.45;;;21.12;58.21
54872;BME280;43914;57.680;11.982;2022-07-21T01:39:50;100650.25;;;21.10;58.42
54872;BME280;43914;57.680;11.982;2022-07-21T01:42:35;100651.02;;;21.05;58.61
54872;BME280;43914;57.680;11.982;2022-07-21T01:45:01;100640.84;;;21.00;58.67
54872;BME280;43914;57.680;11.982;2022-07-21T01:47:28;100638.34;;;20.96;58.58
54872;BME280;43914;57.680;11.982;2022-07-21T01:49:54;100643.24;;;20.94;58.74
54872;BME280;43914;57.680;11.982;2022-07-21T01:52:20;100641.31;;;20.92;58.65
54872;BME280;43914;57.680;11.982;2022-07-21T01:54:46;100629.77;;;20.87;58.65
54872;BME280;43914;57.680;11.982;2022-07-21T01:57:13;100631.41;;;20.86;58.66
54872;BME280;43914;57.680;11.982;2022-07-21T01:59:39;100629.48;;;20.84;58.73
54872;BME280;43914;57.680;11.982;2022-07-21T02:02:05;100623.17;;;20.81;58.83
54872;BME280;43914;57.680;11.982;2022-07-21T02:04:31;100621.52;;;20.80;59.03
54872;BME280;43914;57.680;11.982;2022-07-21T02:06:58;100629.40;;;20.79;59.06
54872;BME280;43914;57.680;11.982;2022-07-21T02:09:24;100628.27;;;20.77;59.00
54872;BME280;43914;57.680;11.982;2022-07-21T02:11:50;100619.52;;;20.75;59.09
54872;BME280;43914;57.680;11.982;2022-07-21T02:14:16;100619.76;;;20.73;59.10
54872;BME280;43914;57.680;11.982;2022-07-21T02:16:42;100620.55;;;20.71;59.19
54872;BME280;43914;57.680;11.982;2022-07-21T02:19:08;100614.28;;;20.71;59.27
54872;BME280;43914;57.680;11.982;2022-07-21T02:21:34;100609.62;;;20.69;59.33
54872;BME280;43914;57.680;11.982;2022-07-21T02:24:01;100610.98;;;20.69;59.39
54872;BME280;43914;57.680;11.982;2022-07-21T02:26:26;100616.16;;;20.68;59.38
54872;BME280;43914;57.680;11.982;2022-07-21T02:28:52;100618.89;;;20.68;59.49
54872;BME280;43914;57.680;11.982;2022-07-21T02:31:20;100615.59;;;20.66;59.65
54872;BME280;43914;57.680;11.982;2022-07-21T02:33:46;100607.12;;;20.65;59.79
54872;BME280;43914;57.680;11.982;2022-07-21T02:36:12;100603.27;;;20.63;59.92
54872;BME280;43914;57.680;11.982;2022-07-21T02:38:38;100596.70;;;20.61;59.93
54872;BME280;43914;57.680;11.982;2022-07-21T02:41:04;100596.42;;;20.60;59.98
54872;BME280;43914;57.680;11.982;2022-07-21T02:43:30;100592.57;;;20.59;60.07
54872;BME280;43914;57.680;11.982;2022-07-21T02:45:56;100591.16;;;20.56;60.16
54872;BME280;43914;57.680;11.982;2022-07-21T02:48:22;100583.24;;;20.55;60.29
54872;BME280;43914;57.680;11.982;2022-07-21T02:50:48;100586.22;;;20.53;60.38
54872;BME280;43914;57.680;11.982;2022-07-21T02:53:17;100574.72;;;20.49;60.47
54872;BME280;43914;57.680;11.982;2022-07-21T02:55:46;100582.91;;;20.49;60.49
54872;BME280;43914;57.680;11.982;2022-07-21T02:58:24;100588.88;;;20.45;60.65
54872;BME280;43914;57.680;11.982;2022-07-21T03:00:57;100586.63;;;20.42;60.73
54872;BME280;43914;57.680;11.982;2022-07-21T03:03:31;100581.97;;;20.40;60.83
54872;BME280;43914;57.680;11.982;2022-07-21T03:05:58;100585.49;;;20.38;60.90
54872;BME280;43914;57.680;11.982;2022-07-21T03:08:25;100577.53;;;20.34;61.03
54872;BME280;43914;57.680;11.982;2022-07-21T03:10:52;100576.44;;;20.32;60.90
54872;BME280;43914;57.680;11.982;2022-07-21T03:13:19;100575.59;;;20.32;60.88
54872;BME280;43914;57.680;11.982;2022-07-21T03:15:45;100572.02;;;20.29;60.87
54872;BME280;43914;57.680;11.982;2022-07-21T03:18:11;100573.09;;;20.28;60.81
54872;BME280;43914;57.680;11.982;2022-07-21T03:20:39;100566.52;;;20.26;60.72
54872;BME280;43914;57.680;11.982;2022-07-21T03:23:06;100559.12;;;20.24;60.70
54872;BME280;43914;57.680;11.982;2022-07-21T03:25:33;100559.67;;;20.24;60.74
54872;BME280;43914;57.680;11.982;2022-07-21T03:27:59;100562.41;;;20.24;60.80
54872;BME280;43914;57.680;11.982;2022-07-21T03:30:25;100563.72;;;20.21;60.80
54872;BME280;43914;57.680;11.982;2022-07-21T03:32:52;100555.53;;;20.21;60.86
54872;BME280;43914;57.680;11.982;2022-07-21T03:35:19;100557.45;;;20.21;60.90
54872;BME280;43914;57.680;11.982;2022-07-21T03:37:53;100558.53;;;20.20;60.87
54872;BME280;43914;57.680;11.982;2022-07-21T03:40:24;100559.06;;;20.19;60.94
54872;BME280;43914;57.680;11.982;2022-07-21T03:42:55;100564.50;;;20.16;61.20
54872;BME280;43914;57.680;11.982;2022-07-21T03:45:22;100562.57;;;20.14;61.23
54872;BME280;43914;57.680;11.982;2022-07-21T03:47:52;100558.95;;;20.11;61.45
54872;BME280;43914;57.680;11.982;2022-07-21T03:50:18;100558.95;;;20.11;61.53
54872;BME280;43914;57.680;11.982;2022-07-21T03:52:45;100557.86;;;20.10;61.67
54872;BME280;43914;57.680;11.982;2022-07-21T03:55:11;100560.08;;;20.13;61.85
54872;BME280;43914;57.680;11.982;2022-07-21T03:57:40;100558.19;;;20.13;61.99
54872;BME280;43914;57.680;11.982;2022-07-21T04:00:12;100555.41;;;20.11;61.92
54872;BME280;43914;57.680;11.982;2022-07-21T04:02:43;100549.41;;;20.11;61.89
54872;BME280;43914;57.680;11.982;2022-07-21T04:05:10;100547.75;;;20.10;61.90
54872;BME280;43914;57.680;11.982;2022-07-21T04:07:38;100553.48;;;20.09;61.98
54872;BME280;43914;57.680;11.982;2022-07-21T04:10:07;100554.00;;;20.08;61.98
54872;BME280;43914;57.680;11.982;2022-07-21T04:12:34;100554.86;;;20.11;62.11
54872;BME280;43914;57.680;11.982;2022-07-21T04:15:00;100555.70;;;20.12;62.07
54872;BME280;43914;57.680;11.982;2022-07-21T04:17:26;100557.39;;;20.15;61.99
54872;BME280;43914;57.680;11.982;2022-07-21T04:19:51;100563.14;;;20.16;62.06
54872;BME280;43914;57.680;11.982;2022-07-21T04:22:17;100559.33;;;20.17;62.09
54872;BME280;43914;57.680;11.982;2022-07-21T04:24:43;100563.99;;;20.20;62.12
54872;BME280;43914;57.680;11.982;2022-07-21T04:27:09;100566.73;;;20.22;62.04
54872;BME280;43914;57.680;11.982;2022-07-21T04:29:35;100562.41;;;20.24;62.21
54872;BME280;43914;57.680;11.982;2022-07-21T04:32:01;100554.78;;;20.26;62.17
54872;BME280;43914;57.680;11.982;2022-07-21T04:34:27;100556.16;;;20.26;62.17
54872;BME280;43914;57.680;11.982;2022-07-21T04:36:54;100563.83;;;20.29;62.15
54872;BME280;43914;57.680;11.982;2022-07-21T04:39:20;100553.19;;;20.30;62.30
54872;BME280;43914;57.680;11.982;2022-07-21T04:41:46;100550.80;;;20.33;62.24
54872;BME280;43914;57.680;11.982;2022-07-21T04:44:11;100543.17;;;20.36;62.26
54872;BME280;43914;57.680;11.982;2022-07-21T04:46:40;100535.84;;;20.39;62.23
54872;BME280;43914;57.680;11.982;2022-07-21T04:49:05;100540.78;;;20.42;62.28
54872;BME280;43914;57.680;11.982;2022-07-21T04:51:31;100544.61;;;20.43;62.12
54872;BME280;43914;57.680;11.982;2022-07-21T04:53:57;100551.23;;;20.47;61.88
54872;BME280;43914;57.680;11.982;2022-07-21T04:56:23;100543.84;;;20.48;61.81
54872;BME280;43914;57.680;11.982;2022-07-21T04:58:48;100540.64;;;20.54;61.79
54872;BME280;43914;57.680;11.982;2022-07-21T05:01:14;100553.22;;;20.57;61.79
54872;BME280;43914;57.680;11.982;2022-07-21T05:03:42;100543.66;;;20.57;61.88
54872;BME280;43914;57.680;11.982;2022-07-21T05:06:08;100547.48;;;20.56;61.85
54872;BME280;43914;57.680;11.982;2022-07-21T05:08:33;100546.68;;;20.58;61.84
54872;BME280;43914;57.680;11.982;2022-07-21T05:10:59;100554.88;;;20.58;61.93
54872;BME280;43914;57.680;11.982;2022-07-21T05:13:25;100548.09;;;20.61;61.95
54872;BME280;43914;57.680;11.982;2022-07-21T05:15:51;100549.22;;;20.65;61.83
54872;BME280;43914;57.680;11.982;2022-07-21T05:18:17;100546.81;;;20.69;61.79
54872;BME280;43914;57.680;11.982;2022-07-21T05:20:43;100542.72;;;20.71;61.85
54872;BME280;43914;57.680;11.982;2022-07-21T05:23:09;100546.02;;;20.73;61.89
54872;BME280;43914;57.680;11.982;2022-07-21T05:25:35;100550.72;;;20.78;61.94
54872;BME280;43914;57.680;11.982;2022-07-21T05:28:01;100547.50;;;20.81;61.96
54872;BME280;43914;57.680;11.982;2022-07-21T05:30:29;100547.55;;;20.86;62.09
54872;BME280;43914;57.680;11.982;2022-07-21T05:32:55;100550.08;;;20.93;61.92
54872;BME280;43914;57.680;11.982;2022-07-21T05:35:21;100550.96;;;21.01;61.82
54872;BME280;43914;57.680;11.982;2022-07-21T05:37:46;100549.95;;;21.08;61.46
54872;BME280;43914;57.680;11.982;2022-07-21T05:40:13;100544.24;;;21.12;61.00
54872;BME280;43914;57.680;11.982;2022-07-21T05:42:40;100544.80;;;21.14;60.83
54872;BME280;43914;57.680;11.982;2022-07-21T05:45:07;100545.09;;;21.17;60.89
54872;BME280;43914;57.680;11.982;2022-07-21T05:47:34;100537.77;;;21.23;60.82
54872;BME280;43914;57.680;11.982;2022-07-21T05:50:00;100541.90;;;21.28;60.81
54872;BME280;43914;57.680;11.982;2022-07-21T05:52:26;100540.29;;;21.32;60.87
54872;BME280;43914;57.680;11.982;2022-07-21T05:54:52;100538.43;;;21.38;60.95
54872;BME280;43914;57.680;11.982;2022-07-21T05:57:18;100537.65;;;21.43;60.98
54872;BME280;43914;57.680;11.982;2022-07-21T05:59:45;100536.03;;;21.47;60.95
54872;BME280;43914;57.680;11.982;2022-07-21T06:02:11;100537.96;;;21.52;60.88
54872;BME280;43914;57.680;11.982;2022-07-21T06:04:37;100530.91;;;21.56;60.79
54872;BME280;43914;57.680;11.982;2022-07-21T06:07:03;100523.53;;;21.61;60.73
54872;BME280;43914;57.680;11.982;2022-07-21T06:09:29;100532.08;;;21.68;60.72
54872;BME280;43914;57.680;11.982;2022-07-21T06:11:55;100535.42;;;21.75;60.78
54872;BME280;43914;57.680;11.982;2022-07-21T06:14:21;100536.00;;;21.82;60.46
54872;BME280;43914;57.680;11.982;2022-07-21T06:16:47;100537.67;;;21.88;60.17
54872;BME280;43914;57.680;11.982;2022-07-21T06:19:14;100539.34;;;21.95;59.90
54872;BME280;43914;57.680;11.982;2022-07-21T06:21:40;100529.81;;;22.00;59.83
54872;BME280;43914;57.680;11.982;2022-07-21T06:24:07;100518.63;;;22.09;60.02
54872;BME280;43914;57.680;11.982;2022-07-21T06:26:34;100524.95;;;22.17;59.91
54872;BME280;43914;57.680;11.982;2022-07-21T06:28:59;100522.25;;;22.25;59.91
54872;BME280;43914;57.680;11.982;2022-07-21T06:31:26;100516.80;;;22.33;59.89
54872;BME280;43914;57.680;11.982;2022-07-21T06:33:52;100523.12;;;22.41;59.73
54872;BME280;43914;57.680;11.982;2022-07-21T06:36:17;100516.59;;;22.47;59.50
54872;BME280;43914;57.680;11.982;2022-07-21T06:38:43;100517.97;;;22.58;59.65
54872;BME280;43914;57.680;11.982;2022-07-21T06:41:12;100515.54;;;22.69;59.66
54872;BME280;43914;57.680;11.982;2022-07-21T06:43:38;100518.83;;;22.76;59.48
54872;BME280;43914;57.680;11.982;2022-07-21T06:46:04;100521.02;;;22.85;59.33
54872;BME280;43914;57.680;11.982;2022-07-21T06:48:30;100520.75;;;22.89;59.21
54872;BME280;43914;57.680;11.982;2022-07-21T06:50:56;100526.81;;;22.96;59.16
54872;BME280;43914;57.680;11.982;2022-07-21T06:53:23;100528.72;;;23.03;58.80
54872;BME280;43914;57.680;11.982;2022-07-21T06:55:50;100524.06;;;23.06;58.80
54872;BME280;43914;57.680;11.982;2022-07-21T06:58:20;100520.77;;;23.10;58.47
54872;BME280;43914;57.680;11.982;2022-07-21T07:00:48;100514.46;;;23.12;58.57
54872;BME280;43914;57.680;11.982;2022-07-21T07:03:16;100510.36;;;23.14;58.58
54872;BME280;43914;57.680;11.982;2022-07-21T07:05:45;100508.15;;;23.19;58.51
54872;BME280;43914;57.680;11.982;2022-07-21T07:08:12;100511.44;;;23.21;58.61
54872;BME280;43914;57.680;11.982;2022-07-21T07:10:39;100512.25;;;23.24;58.53
54872;BME280;43914;57.680;11.982;2022-07-21T07:13:06;100506.81;;;23.29;58.38
54872;BME280;43914;57.680;11.982;2022-07-21T07:15:32;100506.53;;;23.33;58.33
54872;BME280;43914;57.680;11.982;2022-07-21T07:17:58;100514.75;;;23.39;58.31
54872;BME280;43914;57.680;11.982;2022-07-21T07:20:24;100509.81;;;23.41;58.06
54872;BME280;43914;57.680;11.982;2022-07-21T07:22:50;100512.56;;;23.43;58.18
54872;BME280;43914;57.680;11.982;2022-07-21T07:25:16;100512.80;;;23.52;58.01
54872;BME280;43914;57.680;11.982;2022-07-21T07:27:46;100514.98;;;23.55;57.94
54872;BME280;43914;57.680;11.982;2022-07-21T07:30:14;100509.77;;;23.59;57.70
54872;BME280;43914;57.680;11.982;2022-07-21T07:32:41;100506.20;;;23.61;57.38
54872;BME280;43914;57.680;11.982;2022-07-21T07:35:09;100503.72;;;23.62;57.24
54872;BME280;43914;57.680;11.982;2022-07-21T07:37:41;100499.08;;;23.62;57.34
54872;BME280;43914;57.680;11.982;2022-07-21T07:40:06;100498.53;;;23.60;57.43
54872;BME280;43914;57.680;11.982;2022-07-21T07:42:35;100494.95;;;23.60;57.34
54872;BME280;43914;57.680;11.982;2022-07-21T07:45:02;100496.87;;;23.62;57.38
54872;BME280;43914;57.680;11.982;2022-07-21T07:47:29;100495.23;;;23.63;57.68
54872;BME280;43914;57.680;11.982;2022-07-21T07:49:55;100502.63;;;23.66;57.72
54872;BME280;43914;57.680;11.982;2022-07-21T07:52:22;100494.37;;;23.71;57.86
54872;BME280;43914;57.680;11.982;2022-07-21T07:54:48;100498.20;;;23.75;57.45
54872;BME280;43914;57.680;11.982;2022-07-21T07:57:13;100489.97;;;23.75;57.42
54872;BME280;43914;57.680;11.982;2022-07-21T07:59:39;100489.44;;;23.75;57.58
54872;BME280;43914;57.680;11.982;2022-07-21T08:02:07;100486.39;;;23.77;57.74
54872;BME280;43914;57.680;11.982;2022-07-21T08:04:33;100492.94;;;23.86;57.58
54872;BME280;43914;57.680;11.982;2022-07-21T08:07:01;100496.52;;;23.89;57.44
54872;BME280;43914;57.680;11.982;2022-07-21T08:09:28;100493.48;;;23.94;57.17
54872;BME280;43914;57.680;11.982;2022-07-21T08:11:54;100488.23;;;24.00;57.25
54872;BME280;43914;57.680;11.982;2022-07-21T08:14:22;100481.11;;;24.06;57.33
54872;BME280;43914;57.680;11.982;2022-07-21T08:16:48;100483.52;;;24.16;57.32
54872;BME280;43914;57.680;11.982;2022-07-21T08:19:14;100474.98;;;24.23;57.46
54872;BME280;43914;57.680;11.982;2022-07-21T08:21:40;100478.77;;;24.32;57.61
54872;BME280;43914;57.680;11.982;2022-07-21T08:24:06;100474.04;;;24.40;57.57
54872;BME280;43914;57.680;11.982;2022-07-21T08:26:33;100473.20;;;24.42;57.35
54872;BME280;43914;57.680;11.982;2022-07-21T08:28:59;100482.25;;;24.45;57.30
54872;BME280;43914;57.680;11.982;2022-07-21T08:31:25;100479.19;;;24.55;57.29
54872;BME280;43914;57.680;11.982;2022-07-21T08:33:52;100472.01;;;24.59;57.15
54872;BME280;43914;57.680;11.982;2022-07-21T08:36:18;100478.56;;;24.66;56.99
54872;BME280;43914;57.680;11.982;2022-07-21T08:38:45;100470.53;;;24.74;57.23
54872;BME280;43914;57.680;11.982;2022-07-21T08:41:11;100474.06;;;24.83;57.17
54872;BME280;43914;57.680;11.982;2022-07-21T08:43:37;100469.84;;;24.93;56.83
54872;BME280;43914;57.680;11.982;2022-07-21T08:46:04;100470.10;;;24.97;56.18
54872;BME280;43914;57.680;11.982;2022-07-21T08:48:30;100466.45;;;25.04;56.32
54872;BME280;43914;57.680;11.982;2022-07-21T08:50:56;100460.64;;;25.08;55.97
54872;BME280;43914;57.680;11.982;2022-07-21T08:53:23;100460.89;;;25.12;55.30
54872;BME280;43914;57.680;11.982;2022-07-21T08:55:50;100462.44;;;25.20;55.07
54872;BME280;43914;57.680;11.982;2022-07-21T08:58:16;100460.45;;;25.29;55.36
54872;BME280;43914;57.680;11.982;2022-07-21T09:00:45;100452.94;;;25.34;55.23
54872;BME280;43914;57.680;11.982;2022-07-21T09:03:22;100454.78;;;25.42;54.65
54872;BME280;43914;57.680;11.982;2022-07-21T09:06:10;100452.23;;;25.53;54.46
54872;BME280;43914;57.680;11.982;2022-07-21T09:11:16;100450.66;;;25.69;53.58
54872;BME280;43914;57.680;11.982;2022-07-21T09:13:50;100446.52;;;25.71;53.35
54872;BME280;43914;57.680;11.982;2022-07-21T09:16:50;100445.31;;;25.80;53.66
54872;BME280;43914;57.680;11.982;2022-07-21T09:19:18;100440.52;;;25.88;53.43
54872;BME280;43914;57.680;11.982;2022-07-21T09:21:47;100435.72;;;25.97;53.02
54872;BME280;43914;57.680;11.982;2022-07-21T09:24:27;100437.55;;;26.04;52.83
54872;BME280;43914;57.680;11.982;2022-07-21T09:32:24;100435.98;;;26.39;52.04
54872;BME280;43914;57.680;11.982;2022-07-21T09:34:54;100436.63;;;26.52;51.17
54872;BME280;43914;57.680;11.982;2022-07-21T09:37:22;100433.46;;;26.59;51.11
54872;BME280;43914;57.680;11.982;2022-07-21T09:39:54;100434.75;;;26.64;50.85
54872;BME280;43914;57.680;11.982;2022-07-21T09:42:28;100431.97;;;26.67;50.80
54872;BME280;43914;57.680;11.982;2022-07-21T09:45:01;100438.48;;;26.73;50.60
54872;BME280;43914;57.680;11.982;2022-07-21T09:47:34;100437.46;;;26.86;50.63
54872;BME280;43914;57.680;11.982;2022-07-21T09:50:02;100438.40;;;26.95;50.72
54872;BME280;43914;57.680;11.982;2022-07-21T09:52:37;100435.73;;;27.06;50.27
54872;BME280;43914;57.680;11.982;2022-07-21T09:55:07;100438.61;;;27.15;50.31
54872;BME280;43914;57.680;11.982;2022-07-21T09:57:35;100437.51;;;27.30;49.93
54872;BME280;43914;57.680;11.982;2022-07-21T10:00:03;100435.09;;;27.40;49.93
54872;BME280;43914;57.680;11.982;2022-07-21T10:02:32;100434.98;;;27.45;49.76
54872;BME280;43914;57.680;11.982;2022-07-21T10:05:02;100429.41;;;27.50;49.61
54872;BME280;43914;57.680;11.982;2022-07-21T10:07:30;100441.98;;;27.57;49.10
54872;BME280;43914;57.680;11.982;2022-07-21T10:09:57;100438.81;;;27.63;49.08
54872;BME280;43914;57.680;11.982;2022-07-21T10:12:26;100432.86;;;27.70;49.26
54872;BME280;43914;57.680;11.982;2022-07-21T10:14:53;100434.66;;;27.77;49.17
54872;BME280;43914;57.680;11.982;2022-07-21T10:17:22;100439.24;;;27.82;48.98
54872;BME280;43914;57.680;11.982;2022-07-21T10:20:04;100432.09;;;27.81;48.66
54872;BME280;43914;57.680;11.982;2022-07-21T10:25:35;100426.03;;;27.93;48.79
54872;BME280;43914;57.680;11.982;2022-07-21T10:28:16;100423.41;;;27.99;47.75
54872;BME280;43914;57.680;11.982;2022-07-21T10:30:54;100423.29;;;28.04;48.46
54872;BME280;43914;57.680;11.982;2022-07-21T10:41:49;100410.73;;;27.98;47.93
54872;BME280;43914;57.680;11.982;2022-07-21T10:47:03;100413.57;;;28.07;47.11
54872;BME280;43914;57.680;11.982;2022-07-21T10:49:47;100407.55;;;28.05;46.64
54872;BME280;43914;57.680;11.982;2022-07-21T10:55:13;100395.57;;;28.10;45.30
54872;BME280;43914;57.680;11.982;2022-07-21T10:57:46;100389.32;;;28.18;45.73
54872;BME280;43914;57.680;11.982;2022-07-21T11:00:31;100385.05;;;28.34;46.35
54872;BME280;43914;57.680;11.982;2022-07-21T11:03:03;100382.41;;;28.52;45.66
54872;BME280;43914;57.680;11.982;2022-07-21T11:05:33;100382.89;;;28.65;45.69
54872;BME280;43914;57.680;11.982;2022-07-21T11:08:17;100377.56;;;28.80;45.34
54872;BME280;43914;57.680;11.982;2022-07-21T11:10:51;100374.15;;;28.95;45.95
54872;BME280;43914;57.680;11.982;2022-07-21T11:13:20;100382.41;;;29.06;45.25
54872;BME280;43914;57.680;11.982;2022-07-21T11:18:28;100373.48;;;29.38;44.85
54872;BME280;43914;57.680;11.982;2022-07-21T11:21:15;100372.09;;;29.59;44.05
54872;BME280;43914;57.680;11.982;2022-07-21T11:23:46;100362.33;;;29.61;44.08
54872;BME280;43914;57.680;11.982;2022-07-21T11:26:16;100369.50;;;29.62;44.23
54872;BME280;43914;57.680;11.982;2022-07-21T11:28:45;100364.12;;;29.75;43.90
54872;BME280;43914;57.680;11.982;2022-07-21T11:31:20;100359.44;;;29.84;42.98
54872;BME280;43914;57.680;11.982;2022-07-21T11:33:47;100361.72;;;29.82;42.90
54872;BME280;43914;57.680;11.982;2022-07-21T11:36:29;100368.06;;;29.91;42.94
54872;BME280;43914;57.680;11.982;2022-07-21T11:38:59;100361.66;;;30.02;42.27
54872;BME280;43914;57.680;11.982;2022-07-21T11:41:35;100360.18;;;30.22;42.42
54872;BME280;43914;57.680;11.982;2022-07-21T11:44:04;100363.01;;;30.46;41.98
54872;BME280;43914;57.680;11.982;2022-07-21T11:46:48;100358.09;;;30.61;42.49
54872;BME280;43914;57.680;11.982;2022-07-21T11:49:16;100358.81;;;30.55;43.24
54872;BME280;43914;57.680;11.982;2022-07-21T11:51:54;100362.19;;;30.37;43.54
54872;BME280;43914;57.680;11.982;2022-07-21T11:57:05;100346.67;;;30.03;44.76
54872;BME280;43914;57.680;11.982;2022-07-21T11:59:33;100356.75;;;29.99;45.02
54872;BME280;43914;57.680;11.982;2022-07-21T12:04:47;100343.06;;;30.03;44.69
54872;BME280;43914;57.680;11.982;2022-07-21T12:07:20;100340.72;;;30.07;44.91
54872;BME280;43914;57.680;11.982;2022-07-21T12:09:51;100348.54;;;30.14;45.04
54872;BME280;43914;57.680;11.982;2022-07-21T12:12:40;100352.91;;;30.24;45.04
54872;BME280;43914;57.680;11.982;2022-07-21T12:15:22;100339.22;;;30.19;44.99
54872;BME280;43914;57.680;11.982;2022-07-21T12:17:53;100338.73;;;30.26;45.18
54872;BME280;43914;57.680;11.982;2022-07-21T12:20:34;100347.78;;;30.29;44.32
54872;BME280;43914;57.680;11.982;2022-07-21T12:23:19;100338.36;;;30.12;44.57
54872;BME280;43914;57.680;11.982;2022-07-21T12:25:48;100348.68;;;30.00;44.84
54872;BME280;43914;57.680;11.982;2022-07-21T12:28:14;100365.36;;;29.89;45.27
54872;BME280;43914;57.680;11.982;2022-07-21T12:30:49;100351.12;;;29.84;45.69
54872;BME280;43914;57.680;11.982;2022-07-21T12:33:21;100342.55;;;29.74;45.73
54872;BME280;43914;57.680;11.982;2022-07-21T12:36:06;100345.22;;;29.59;46.00
54872;BME280;43914;57.680;11.982;2022-07-21T12:41:07;100354.08;;;29.30;46.93
54872;BME280;43914;57.680;11.982;2022-07-21T12:43:34;100347.21;;;29.18;46.95
54872;BME280;43914;57.680;11.982;2022-07-21T12:46:15;100334.88;;;29.04;47.24
54872;BME280;43914;57.680;11.982;2022-07-21T12:48:44;100333.00;;;29.02;47.59
54872;BME280;43914;57.680;11.982;2022-07-21T12:51:21;100344.41;;;29.09;47.46
54872;BME280;43914;57.680;11.982;2022-07-21T12:53:52;100359.02;;;29.21;47.50
54872;BME280;43914;57.680;11.982;2022-07-21T12:56:26;100355.80;;;29.28;47.21
54872;BME280;43914;57.680;11.982;2022-07-21T12:58:53;100346.91;;;29.40;47.06
54872;BME280;43914;57.680;11.982;2022-07-21T13:01:21;100345.72;;;29.61;46.69
54872;BME280;43914;57.680;11.982;2022-07-21T13:03:48;100331.55;;;29.72;45.88
54872;BME280;43914;57.680;11.982;2022-07-21T13:06:15;100329.34;;;29.89;45.57
54872;BME280;43914;57.680;11.982;2022-07-21T13:08:43;100324.40;;;30.06;45.48
54872;BME280;43914;57.680;11.982;2022-07-21T13:11:12;100326.25;;;30.34;45.12
54872;BME280;43914;57.680;11.982;2022-07-21T13:13:39;100325.75;;;30.74;44.48
54872;BME280;43914;57.680;11.982;2022-07-21T13:16:07;100334.75;;;31.09;44.07
54872;BME280;43914;57.680;11.982;2022-07-21T13:18:34;100330.45;;;31.36;43.95
54872;BME280;43914;57.680;11.982;2022-07-21T13:21:01;100335.56;;;31.55;43.01
54872;BME280;43914;57.680;11.982;2022-07-21T13:23:28;100327.14;;;31.58;42.25